Weather at Stoodleigh Barton Private Airstrip

Public forecast

Using degrees Celsius for public forecast. Weather courtesy of forecast.io.

Closest aviation weather report (METAR) to Stoodleigh Barton Private Airstrip

Report is more than 2 hours old.

Closest report is Exeter International Airport, 14.1 nm (26.1 km) SSE. Retrieved 2021/04/16 15:20 UTC (5 hours ago):

EGTE 161520Z 16008KT 9999 FEW042 10/01 Q1029

Closest aviation forecast (TAF) to Stoodleigh Barton Private Airstrip

Forecast is more than 12 hours old.

Closest forecast is Exeter International Airport, 14.1 nm (26.1 km) SSE. Retrieved 2012/04/19 12:15 UTC (9 years ago):

TAF TAF EGTE 191401Z 1912/1924 31016KT 9999 SCT030 SCT035 PROB40 TEMPO 1915/1918 7000 SHRA BKN014